Accueil
METAR-TAF:

METAR-TAF

Aéroports :

Uden, Pays-Bas

Base aérienne Volkel-Uden

latitude: 51-39N, longitude: 005-42E, altitude: 22 m

Observation

Le bulletin a été fait il y a 25 minutes, à 01:25 UTC
Vent 8 kt de sud-ouest, variant entre sud/sud-ouest et ouest
Température 15°C
Humidité 77%
Pression 1016 hPa
Visibilité 10 km ou plus
Quelques nuages à une hauteur de 4100 ft

METAR: EHVK 240125Z AUTO 23008KT 200V270 9999 FEW041 15/11 Q1016 BLU

Heure: 03:50 (01:50 UTC)

Prévision

Le bulletin a été fait il y a 13 heures et 23 minutes, à 12:27 UTC
Prévision valable du 23 à 13 UTC au 24 à 01 UTC
Vent 12 kt de ouest/sud-ouest
Visibilité 10 km ou plus
Nuages épars à une hauteur de 4000 ft

TAF: EHVK 231227Z 2313/2401 25012KT 9999 SCT040

Observations et prévisions météorologiques de plus de 4000 aéroports (messages METAR et TAF).

Les stations disponibles sont représentées par des disques jaunes et rouges sur la carte.

Passer la souris dessus pour voir le nom de la station.

Cliquer dessus pour voir les observations et prévisions météorologiques.

Pour changer de carte: cliquez sur les boutons verts avec une croix noire pour zoomer, sur le bouton vert avec un tiret pour effectuer un zoom arrière, ou sur les flèches vertes pour les cartes adjacentes.


METAR-TAF: